createdAt,value
2023-05-02T00:01:52.070Z,100.00
2023-05-02T00:04:24.204Z,100.00
2023-05-02T00:06:55.930Z,100.00
2023-05-02T00:09:27.511Z,100.00
2023-05-02T00:11:59.581Z,100.00
2023-05-02T00:14:31.163Z,100.00
2023-05-02T00:17:03.007Z,100.00
2023-05-02T00:19:40.114Z,100.00
2023-05-02T00:22:11.570Z,100.00
2023-05-02T00:24:43.039Z,100.00
2023-05-02T00:27:14.533Z,100.00
2023-05-02T00:29:47.806Z,100.00
2023-05-02T00:32:19.374Z,100.00
2023-05-02T00:34:50.939Z,100.00
2023-05-02T00:37:26.334Z,100.00
2023-05-02T00:39:58.617Z,100.00
2023-05-02T00:42:31.585Z,100.00
2023-05-02T00:45:06.323Z,100.00
2023-05-02T00:47:38.157Z,100.00
2023-05-02T00:50:09.950Z,100.00
2023-05-02T00:52:41.911Z,100.00
2023-05-02T00:55:13.381Z,100.00
2023-05-02T00:57:44.926Z,100.00
2023-05-02T01:00:16.472Z,100.00
2023-05-02T01:02:53.366Z,100.00
2023-05-02T01:05:34.025Z,100.00
2023-05-02T01:08:19.245Z,100.00
2023-05-02T01:11:13.205Z,100.00
2023-05-02T01:13:46.975Z,100.00
2023-05-02T01:16:20.315Z,100.00
2023-05-02T01:18:52.654Z,99.88
2023-05-02T01:21:24.830Z,100.00
2023-05-02T01:24:32.005Z,100.00
2023-05-02T01:27:24.972Z,100.00
2023-05-02T01:29:59.347Z,100.00
2023-05-02T01:32:34.979Z,99.99
2023-05-02T01:35:08.503Z,99.90
2023-05-02T01:37:43.123Z,99.78
2023-05-02T01:40:20.521Z,99.65
2023-05-02T01:42:53.640Z,99.03
2023-05-02T01:45:26.167Z,98.95
2023-05-02T01:47:58.527Z,99.07
2023-05-02T01:50:30.007Z,98.50
2023-05-02T01:53:03.701Z,98.24
2023-05-02T01:55:38.438Z,97.92
2023-05-02T01:58:11.223Z,97.49
2023-05-02T02:00:45.645Z,98.01
2023-05-02T02:03:18.938Z,97.39
2023-05-02T02:05:52.978Z,97.56
2023-05-02T02:08:25.450Z,97.67
2023-05-02T02:11:07.802Z,97.04
2023-05-02T02:13:49.980Z,97.10
2023-05-02T02:16:25.346Z,96.86
2023-05-02T02:19:04.453Z,97.73
2023-05-02T02:21:36.600Z,98.06
2023-05-02T02:24:09.278Z,99.21
2023-05-02T02:26:41.115Z,99.29
2023-05-02T02:29:12.584Z,99.13
2023-05-02T02:31:43.993Z,99.71
2023-05-02T02:34:15.817Z,100.00
2023-05-02T02:37:04.600Z,99.97
2023-05-02T02:39:51.496Z,100.00
2023-05-02T02:42:39.872Z,100.00
2023-05-02T02:45:17.448Z,100.00
2023-05-02T02:48:07.455Z,100.00
2023-05-02T02:51:19.220Z,99.98
2023-05-02T02:54:25.427Z,100.00
2023-05-02T02:57:04.576Z,99.79
2023-05-02T02:59:42.320Z,100.00
2023-05-02T03:02:18.734Z,99.87
2023-05-02T03:04:51.962Z,99.73
2023-05-02T03:07:23.771Z,99.44
2023-05-02T03:09:55.617Z,99.52
2023-05-02T03:12:27.158Z,98.89
2023-05-02T03:15:31.406Z,98.98
2023-05-02T03:18:02.954Z,98.90
2023-05-02T03:20:34.468Z,98.61
2023-05-02T03:23:06.303Z,98.84
2023-05-02T03:25:37.872Z,99.29
2023-05-02T03:28:09.407Z,98.71
2023-05-02T03:30:41.901Z,98.03
2023-05-02T03:33:13.564Z,97.97
2023-05-02T03:35:45.187Z,97.89
2023-05-02T03:38:16.754Z,98.40
2023-05-02T03:40:48.214Z,97.51
2023-05-02T03:43:19.716Z,97.53
2023-05-02T03:45:51.523Z,98.00
2023-05-02T03:48:23.167Z,98.14
2023-05-02T03:50:55.219Z,98.58
2023-05-02T03:53:27.019Z,97.95
2023-05-02T03:55:58.783Z,97.90
2023-05-02T03:58:30.418Z,97.54
2023-05-02T04:01:02.300Z,98.05
2023-05-02T04:03:33.874Z,97.44
2023-05-02T04:06:05.559Z,97.25
2023-05-02T04:08:37.118Z,97.15
2023-05-02T04:11:08.721Z,97.08
2023-05-02T04:13:40.263Z,96.41
2023-05-02T04:16:11.853Z,95.70
2023-05-02T04:18:43.460Z,95.79
2023-05-02T04:21:15.013Z,95.59
2023-05-02T04:23:46.496Z,95.71
2023-05-02T04:26:17.924Z,95.60
2023-05-02T04:28:49.392Z,95.54
2023-05-02T04:31:21.167Z,95.48
2023-05-02T04:33:53.183Z,95.13
2023-05-02T04:36:26.222Z,95.17
2023-05-02T04:38:57.710Z,94.80
2023-05-02T04:41:29.216Z,95.03
2023-05-02T04:44:00.655Z,95.22
2023-05-02T04:46:32.138Z,94.90
2023-05-02T04:49:03.598Z,94.90
2023-05-02T04:51:35.113Z,95.07
2023-05-02T04:54:06.783Z,94.92
2023-05-02T04:56:38.574Z,95.33
2023-05-02T04:59:12.572Z,95.39
2023-05-02T05:01:45.362Z,95.79
2023-05-02T05:04:17.145Z,95.85
2023-05-02T05:06:49.354Z,95.71
2023-05-02T05:09:21.102Z,95.76
2023-05-02T05:11:52.643Z,95.18
2023-05-02T05:14:24.335Z,95.47
2023-05-02T05:16:55.796Z,95.55
2023-05-02T05:19:27.896Z,95.23
2023-05-02T05:21:59.368Z,95.03
2023-05-02T05:24:30.834Z,94.83
2023-05-02T05:27:02.903Z,95.22
2023-05-02T05:29:34.397Z,94.82
2023-05-02T05:32:06.373Z,95.20
2023-05-02T05:34:37.982Z,94.43
2023-05-02T05:37:09.553Z,95.01
2023-05-02T05:39:41.266Z,95.43
2023-05-02T05:42:13.134Z,95.00
2023-05-02T05:44:44.626Z,94.14
2023-05-02T05:47:22.044Z,94.27
2023-05-02T05:49:54.481Z,94.51
2023-05-02T05:52:26.134Z,93.87
2023-05-02T05:54:57.631Z,94.12
2023-05-02T05:57:29.105Z,94.76
2023-05-02T06:00:00.841Z,94.55
2023-05-02T06:02:32.707Z,93.86
2023-05-02T06:05:04.582Z,93.49
2023-05-02T06:07:36.313Z,93.65
2023-05-02T06:10:09.212Z,93.95
2023-05-02T06:12:40.972Z,94.11
2023-05-02T06:15:12.476Z,93.13
2023-05-02T06:17:44.449Z,93.32
2023-05-02T06:20:16.712Z,93.72
2023-05-02T06:22:50.218Z,92.72
2023-05-02T06:25:21.830Z,92.44
2023-05-02T06:27:53.396Z,92.12
2023-05-02T06:30:25.068Z,91.20
2023-05-02T06:32:56.995Z,91.78
2023-05-02T06:35:28.654Z,90.46
2023-05-02T06:38:00.435Z,88.89
2023-05-02T06:40:32.002Z,89.48
2023-05-02T06:43:03.548Z,90.17
2023-05-02T06:45:35.082Z,90.01
2023-05-02T06:48:07.702Z,90.65
2023-05-02T06:50:39.574Z,89.17
2023-05-02T06:53:11.262Z,89.35
2023-05-02T06:55:44.332Z,88.13
2023-05-02T06:58:16.214Z,88.01
2023-05-02T07:00:48.815Z,87.09
2023-05-02T07:03:20.490Z,86.27
2023-05-02T07:05:51.971Z,87.84
2023-05-02T07:08:23.910Z,87.42
2023-05-02T07:10:55.477Z,87.86
2023-05-02T07:13:26.974Z,88.42
2023-05-02T07:15:58.564Z,87.85
2023-05-02T07:18:30.140Z,87.25
2023-05-02T07:21:01.756Z,86.86
2023-05-02T07:23:33.330Z,87.39
2023-05-02T07:26:07.886Z,86.71
2023-05-02T07:28:39.425Z,87.44
2023-05-02T07:31:11.290Z,86.31
2023-05-02T07:33:42.881Z,85.33
2023-05-02T07:36:14.439Z,85.09
2023-05-02T07:38:45.958Z,87.45
2023-05-02T07:41:17.461Z,86.61
2023-05-02T07:43:49.343Z,86.72
2023-05-02T07:46:21.440Z,85.40
2023-05-02T07:48:54.128Z,85.71
2023-05-02T07:51:26.750Z,85.57
2023-05-02T07:53:59.097Z,84.75
2023-05-02T07:56:30.807Z,84.53
2023-05-02T07:59:03.568Z,84.18
2023-05-02T08:01:36.463Z,85.09
2023-05-02T08:04:10.674Z,84.95
2023-05-02T08:06:44.797Z,83.23
2023-05-02T08:09:16.500Z,82.11
2023-05-02T08:11:48.086Z,81.07
2023-05-02T08:14:19.668Z,82.30
2023-05-02T08:16:51.280Z,78.47
2023-05-02T08:19:23.011Z,77.76
2023-05-02T08:21:55.168Z,78.45
2023-05-02T08:24:27.950Z,76.75
2023-05-02T08:26:59.287Z,77.70
2023-05-02T08:29:31.384Z,76.77
2023-05-02T08:32:02.955Z,77.18
2023-05-02T08:34:34.449Z,76.13
2023-05-02T08:37:09.558Z,74.97
2023-05-02T08:39:40.928Z,73.99
2023-05-02T08:42:12.257Z,74.72
2023-05-02T08:44:43.636Z,73.98
2023-05-02T08:47:15.767Z,74.40
2023-05-02T08:49:48.656Z,71.34
2023-05-02T08:52:20.442Z,72.75
2023-05-02T08:54:51.898Z,73.32
2023-05-02T08:57:23.565Z,73.00
2023-05-02T08:59:54.949Z,72.25
2023-05-02T09:02:38.431Z,71.54
2023-05-02T09:05:11.798Z,69.89
2023-05-02T09:07:49.635Z,67.97
2023-05-02T09:10:21.528Z,68.23
2023-05-02T09:12:52.958Z,67.42
2023-05-02T09:15:24.477Z,68.64
2023-05-02T09:17:55.841Z,68.28
2023-05-02T09:20:27.381Z,67.69
2023-05-02T09:22:58.857Z,68.18
2023-05-02T09:25:36.227Z,68.09
2023-05-02T09:28:07.683Z,68.59
2023-05-02T09:30:39.204Z,69.44
2023-05-02T09:33:10.705Z,68.74
2023-05-02T09:35:53.342Z,66.77
2023-05-02T09:38:25.598Z,67.44
2023-05-02T09:40:56.986Z,67.72
2023-05-02T09:43:28.318Z,66.39
2023-05-02T09:45:59.810Z,65.65
2023-05-02T09:48:32.515Z,66.11
2023-05-02T09:51:04.785Z,65.53
2023-05-02T09:53:43.291Z,66.12
2023-05-02T09:56:15.238Z,64.40
2023-05-02T09:58:46.692Z,65.49
2023-05-02T10:01:19.376Z,65.40
2023-05-02T10:03:51.088Z,65.21
2023-05-02T10:06:22.906Z,64.53
2023-05-02T10:08:54.331Z,64.58
2023-05-02T10:11:25.811Z,64.73
2023-05-02T10:13:57.549Z,63.38
2023-05-02T10:16:29.548Z,62.81
2023-05-02T10:19:07.900Z,64.48
2023-05-02T10:21:40.352Z,62.70
2023-05-02T10:24:12.867Z,64.19
2023-05-02T10:26:44.257Z,62.84
2023-05-02T10:29:15.828Z,63.05
2023-05-02T10:31:48.383Z,63.15
2023-05-02T10:34:19.954Z,65.84
2023-05-02T10:36:51.336Z,68.12
2023-05-02T10:39:24.521Z,69.99
2023-05-02T10:41:57.884Z,73.05
2023-05-02T10:44:32.702Z,76.42
2023-05-02T10:47:20.377Z,75.49
2023-05-02T10:49:55.579Z,75.94
2023-05-02T10:52:29.210Z,77.73
2023-05-02T10:55:19.744Z,81.46
2023-05-02T10:57:57.124Z,83.50
2023-05-02T11:00:30.068Z,85.03
2023-05-02T11:03:02.415Z,85.61
2023-05-02T11:05:53.982Z,86.14
2023-05-02T11:08:25.291Z,86.33
2023-05-02T11:10:56.694Z,87.12
2023-05-02T11:13:46.580Z,85.99
2023-05-02T11:16:17.980Z,86.67
2023-05-02T11:18:58.530Z,86.76
2023-05-02T11:21:31.888Z,86.83
2023-05-02T11:24:23.402Z,85.72
2023-05-02T11:27:14.708Z,84.51
2023-05-02T11:29:52.634Z,85.23
2023-05-02T11:32:25.600Z,83.37
2023-05-02T11:34:57.274Z,84.07
2023-05-02T11:37:28.822Z,84.75
2023-05-02T11:40:13.472Z,86.42
2023-05-02T11:42:44.899Z,88.53
2023-05-02T11:45:16.777Z,87.96
2023-05-02T11:47:49.073Z,87.90
2023-05-02T11:50:21.027Z,87.43
2023-05-02T11:52:52.402Z,84.94
2023-05-02T11:55:23.960Z,84.96
2023-05-02T11:57:55.629Z,84.05
2023-05-02T12:00:28.083Z,84.36
2023-05-02T12:02:59.549Z,84.25
2023-05-02T12:05:31.467Z,83.55
2023-05-02T12:08:03.432Z,83.31
2023-05-02T12:10:38.329Z,82.92
2023-05-02T12:13:10.152Z,83.31
2023-05-02T12:15:43.348Z,83.21
2023-05-02T12:18:14.932Z,79.40
2023-05-02T12:20:46.880Z,79.81
2023-05-02T12:23:22.202Z,80.58
2023-05-02T12:25:53.603Z,80.81
2023-05-02T12:28:25.273Z,78.84
2023-05-02T12:30:56.668Z,81.14
2023-05-02T12:33:28.002Z,80.61
2023-05-02T12:36:06.727Z,78.67
2023-05-02T12:38:38.152Z,77.84
2023-05-02T12:41:09.553Z,79.86
2023-05-02T12:43:49.600Z,81.33
2023-05-02T12:46:21.003Z,79.04
2023-05-02T12:49:01.434Z,78.72
2023-05-02T12:51:33.113Z,79.11
2023-05-02T12:54:04.830Z,75.26
2023-05-02T12:56:39.582Z,75.33
2023-05-02T12:59:26.114Z,73.87
2023-05-02T13:01:57.764Z,74.27
2023-05-02T13:04:36.395Z,75.34
2023-05-02T13:07:08.047Z,76.54
2023-05-02T13:09:39.446Z,76.94
2023-05-02T13:12:10.936Z,76.50
2023-05-02T13:14:42.411Z,73.19
2023-05-02T13:17:14.160Z,71.68
2023-05-02T13:19:57.729Z,72.23
2023-05-02T13:22:32.558Z,74.28
2023-05-02T13:25:07.591Z,73.11
2023-05-02T13:27:38.977Z,73.75
2023-05-02T13:30:11.766Z,69.69
2023-05-02T13:32:43.440Z,69.85
2023-05-02T13:35:15.802Z,71.05
2023-05-02T13:37:47.979Z,72.67
2023-05-02T13:40:19.353Z,71.31
2023-05-02T13:42:51.348Z,69.14
2023-05-02T13:45:22.713Z,70.21
2023-05-02T13:47:54.095Z,68.46
2023-05-02T13:50:25.520Z,66.51
2023-05-02T13:52:56.901Z,66.61
2023-05-02T13:55:28.233Z,66.47
2023-05-02T13:57:59.697Z,66.66
2023-05-02T14:00:31.228Z,66.72
2023-05-02T14:03:02.662Z,64.16
2023-05-02T14:05:34.214Z,65.33
2023-05-02T14:08:05.671Z,66.90
2023-05-02T14:10:37.913Z,66.58
2023-05-02T14:13:09.558Z,65.35
2023-05-02T14:15:40.900Z,66.50
2023-05-02T14:18:12.320Z,64.26
2023-05-02T14:20:43.924Z,65.67
2023-05-02T14:23:15.469Z,66.74
2023-05-02T14:25:46.819Z,66.70
2023-05-02T14:28:18.486Z,65.65
2023-05-02T14:30:50.142Z,65.57
2023-05-02T14:33:21.652Z,66.93
2023-05-02T14:35:53.002Z,66.33
2023-05-02T14:38:24.378Z,68.05
2023-05-02T14:40:55.892Z,69.91
2023-05-02T14:43:27.492Z,69.22
2023-05-02T14:45:58.940Z,71.34
2023-05-02T14:48:30.378Z,71.08
2023-05-02T14:51:04.857Z,72.99
2023-05-02T14:53:36.246Z,70.70
2023-05-02T14:56:12.367Z,69.53
2023-05-02T14:58:43.845Z,69.53
2023-05-02T15:01:18.780Z,69.55
2023-05-02T15:06:30.083Z,71.40
2023-05-02T15:09:01.770Z,72.44
2023-05-02T15:11:33.141Z,73.37
2023-05-02T15:14:04.524Z,72.96
2023-05-02T15:16:37.364Z,73.39
2023-05-02T15:19:08.720Z,72.13
2023-05-02T15:21:40.122Z,74.11
2023-05-02T15:24:11.445Z,69.10
2023-05-02T15:26:42.760Z,65.31
2023-05-02T15:29:14.124Z,62.30
2023-05-02T15:31:45.691Z,60.07
2023-05-02T15:34:17.197Z,60.91
2023-05-02T15:36:48.532Z,60.32
2023-05-02T15:39:19.845Z,61.85
2023-05-02T15:41:52.604Z,61.80
2023-05-02T15:44:25.966Z,64.19
2023-05-02T15:46:57.322Z,63.88
2023-05-02T15:49:32.969Z,65.34
2023-05-02T15:52:04.287Z,65.54
2023-05-02T15:54:35.629Z,66.95
2023-05-02T15:57:07.542Z,66.77
2023-05-02T15:59:39.045Z,67.60
2023-05-02T16:02:10.409Z,68.15
2023-05-02T16:04:43.060Z,67.99
2023-05-02T16:07:14.738Z,69.98
2023-05-02T16:09:46.322Z,72.50
2023-05-02T16:12:18.015Z,74.50
2023-05-02T16:14:49.405Z,71.71
2023-05-02T16:17:20.971Z,74.26
2023-05-02T16:19:52.430Z,74.75
2023-05-02T16:22:24.206Z,72.81
2023-05-02T16:24:56.206Z,73.64
2023-05-02T16:27:27.769Z,74.05
2023-05-02T16:29:59.621Z,76.18
2023-05-02T16:32:31.290Z,78.96
2023-05-02T16:35:05.277Z,82.71
2023-05-02T16:37:36.655Z,85.48
2023-05-02T16:40:08.915Z,87.34
2023-05-02T16:42:40.251Z,89.88
2023-05-02T16:45:11.667Z,90.27
2023-05-02T16:47:43.138Z,89.71
2023-05-02T16:50:14.899Z,91.17
2023-05-02T16:52:46.232Z,92.15
2023-05-02T16:55:17.783Z,94.71
2023-05-02T16:57:49.157Z,95.25
2023-05-02T17:00:20.612Z,95.39
2023-05-02T17:02:55.069Z,96.05
2023-05-02T17:05:26.718Z,96.21
2023-05-02T17:07:58.161Z,96.19
2023-05-02T17:10:29.597Z,96.06
2023-05-02T17:13:00.927Z,96.69
2023-05-02T17:15:38.444Z,94.45
2023-05-02T17:18:09.899Z,94.31
2023-05-02T17:20:41.434Z,94.61
2023-05-02T17:23:12.901Z,95.12
2023-05-02T17:25:44.439Z,94.64
2023-05-02T17:28:16.600Z,94.08
2023-05-02T17:30:48.367Z,93.54
2023-05-02T17:33:20.576Z,94.55
2023-05-02T17:35:52.322Z,94.24
2023-05-02T17:38:23.688Z,94.80
2023-05-02T17:40:55.034Z,94.22
2023-05-02T17:43:26.451Z,94.26
2023-05-02T17:45:57.784Z,93.49
2023-05-02T17:48:29.188Z,93.14
2023-05-02T17:51:04.298Z,91.20
2023-05-02T17:53:36.727Z,90.30
2023-05-02T17:56:10.492Z,89.44
2023-05-02T17:58:43.214Z,89.81
2023-05-02T18:01:14.979Z,90.56
2023-05-02T18:03:48.050Z,91.76
2023-05-02T18:06:19.661Z,92.32
2023-05-02T18:08:51.528Z,92.57
2023-05-02T18:11:24.227Z,94.04
2023-05-02T18:13:55.874Z,93.37
2023-05-02T18:16:34.363Z,92.84
2023-05-02T18:19:06.043Z,93.78
2023-05-02T18:21:37.686Z,93.57
2023-05-02T18:24:09.079Z,93.35
2023-05-02T18:26:40.581Z,93.06
2023-05-02T18:29:11.978Z,92.83
2023-05-02T18:31:43.498Z,94.26
2023-05-02T18:34:14.841Z,93.41
2023-05-02T18:36:46.389Z,91.52
2023-05-02T18:39:18.028Z,91.79
2023-05-02T18:41:49.495Z,90.99
2023-05-02T18:44:21.171Z,91.80
2023-05-02T18:46:52.568Z,92.84
2023-05-02T18:49:24.504Z,92.56
2023-05-02T18:51:55.951Z,93.44
2023-05-02T18:54:28.006Z,92.12
2023-05-02T18:56:59.326Z,93.27
2023-05-02T18:59:30.773Z,93.03
2023-05-02T19:02:02.221Z,92.46
2023-05-02T19:04:33.585Z,92.51
2023-05-02T19:07:04.961Z,93.63
2023-05-02T19:09:36.404Z,94.42
2023-05-02T19:12:07.802Z,94.11
2023-05-02T19:14:40.202Z,94.80
2023-05-02T19:17:13.898Z,95.15
2023-05-02T19:19:48.002Z,94.76
2023-05-02T19:22:24.318Z,95.37
2023-05-02T19:24:55.744Z,95.02
2023-05-02T19:27:27.368Z,94.80
2023-05-02T19:29:58.763Z,94.75
2023-05-02T19:32:30.220Z,93.96
2023-05-02T19:35:04.511Z,93.96
2023-05-02T19:37:36.532Z,93.58
2023-05-02T19:40:08.324Z,93.50
2023-05-02T19:42:39.739Z,93.70
2023-05-02T19:45:14.014Z,93.26
2023-05-02T19:47:45.585Z,93.42
2023-05-02T19:50:17.067Z,92.72
2023-05-02T19:52:50.008Z,92.89
2023-05-02T19:55:21.380Z,92.42
2023-05-02T19:57:52.804Z,93.02
2023-05-02T20:00:24.139Z,92.94
2023-05-02T20:02:56.000Z,93.25
2023-05-02T20:05:27.500Z,93.29
2023-05-02T20:07:59.508Z,92.86
2023-05-02T20:10:31.318Z,93.10
2023-05-02T20:13:02.834Z,92.94
2023-05-02T20:15:34.408Z,93.09
2023-05-02T20:18:05.750Z,93.13
2023-05-02T20:20:38.022Z,92.86
2023-05-02T20:23:09.356Z,92.95
2023-05-02T20:25:42.614Z,93.55
2023-05-02T20:28:14.448Z,93.65
2023-05-02T20:30:45.783Z,93.49
2023-05-02T20:33:18.362Z,93.25
2023-05-02T20:35:55.792Z,93.30
2023-05-02T20:38:27.157Z,93.77
2023-05-02T20:40:58.612Z,93.07
2023-05-02T20:43:29.914Z,93.12
2023-05-02T20:46:08.557Z,93.08
2023-05-02T20:48:43.198Z,92.09
2023-05-02T20:51:15.194Z,91.82
2023-05-02T20:53:46.754Z,91.47
2023-05-02T20:56:18.145Z,92.29
2023-05-02T20:58:49.645Z,91.49
2023-05-02T21:01:21.071Z,90.99
2023-05-02T21:03:52.483Z,90.97
2023-05-02T21:06:23.974Z,90.75
2023-05-02T21:08:56.567Z,90.93
2023-05-02T21:11:28.086Z,91.31
2023-05-02T21:13:59.396Z,91.46
2023-05-02T21:16:30.959Z,91.36
2023-05-02T21:19:02.443Z,92.23
2023-05-02T21:21:33.791Z,92.42
2023-05-02T21:24:05.434Z,92.10
2023-05-02T21:26:36.837Z,92.17
2023-05-02T21:29:08.262Z,91.71
2023-05-02T21:31:39.840Z,91.69
2023-05-02T21:34:11.375Z,91.61
2023-05-02T21:36:43.253Z,91.31
2023-05-02T21:39:16.277Z,91.21
2023-05-02T21:41:47.659Z,91.76
2023-05-02T21:44:19.362Z,91.28
2023-05-02T21:46:51.529Z,91.04
2023-05-02T21:49:22.973Z,90.60
2023-05-02T21:51:54.331Z,91.21
2023-05-02T21:54:25.679Z,91.15
2023-05-02T21:56:57.084Z,90.41
2023-05-02T21:59:28.507Z,90.52
2023-05-02T22:01:59.908Z,90.79
2023-05-02T22:04:31.331Z,91.15
2023-05-02T22:07:02.660Z,90.70
2023-05-02T22:09:34.124Z,90.47
2023-05-02T22:12:05.665Z,90.26
2023-05-02T22:14:44.547Z,90.34
2023-05-02T22:17:18.511Z,90.52
2023-05-02T22:19:50.094Z,91.27
2023-05-02T22:22:21.534Z,90.76
2023-05-02T22:24:52.953Z,90.54
2023-05-02T22:27:24.347Z,90.49
2023-05-02T22:29:56.335Z,90.27
2023-05-02T22:32:27.784Z,90.59
2023-05-02T22:34:59.210Z,90.36
2023-05-02T22:37:30.695Z,90.02
2023-05-02T22:40:02.288Z,90.55
2023-05-02T22:42:33.821Z,90.01
2023-05-02T22:45:07.499Z,89.97
2023-05-02T22:47:39.199Z,90.26
2023-05-02T22:50:11.138Z,90.14
2023-05-02T22:52:42.986Z,90.04
2023-05-02T22:55:14.647Z,90.28
2023-05-02T22:57:45.973Z,90.47
2023-05-02T23:00:17.570Z,91.04
2023-05-02T23:02:49.108Z,90.93
2023-05-02T23:05:20.563Z,90.77
2023-05-02T23:07:52.031Z,90.35
2023-05-02T23:10:23.434Z,90.25
2023-05-02T23:12:54.810Z,89.78
2023-05-02T23:15:26.231Z,90.21
2023-05-02T23:17:57.779Z,89.99
2023-05-02T23:20:29.218Z,89.17
2023-05-02T23:23:00.690Z,88.91
2023-05-02T23:25:33.105Z,89.28
2023-05-02T23:28:04.826Z,89.09
2023-05-02T23:30:37.884Z,88.45
2023-05-02T23:33:09.417Z,88.95
2023-05-02T23:35:40.899Z,88.62
2023-05-02T23:38:12.626Z,88.83
2023-05-02T23:40:44.001Z,89.13
2023-05-02T23:43:15.933Z,89.32
2023-05-02T23:45:47.391Z,90.28
2023-05-02T23:48:19.998Z,90.34
2023-05-02T23:50:51.338Z,90.02
2023-05-02T23:53:22.781Z,89.70
2023-05-02T23:55:54.219Z,89.66
2023-05-02T23:58:25.787Z,89.55
